createdAt,value
2023-11-18T00:00:22.995Z,100456.28
2023-11-18T00:03:25.954Z,100462.31
2023-11-18T00:06:29.317Z,100438.47
2023-11-18T00:09:31.479Z,100449.75
2023-11-18T00:12:37.101Z,100460.00
2023-11-18T00:15:39.169Z,100451.81
2023-11-18T00:18:41.329Z,100459.56
2023-11-18T00:21:43.951Z,100449.09
2023-11-18T00:24:46.160Z,100454.72
2023-11-18T00:27:48.178Z,100459.53
2023-11-18T00:30:51.483Z,100459.31
2023-11-18T00:33:53.738Z,100454.13
2023-11-18T00:36:57.462Z,100456.41
2023-11-18T00:39:59.852Z,100441.28
2023-11-18T00:43:01.872Z,100447.69
2023-11-18T00:46:05.200Z,100454.56
2023-11-18T00:49:07.339Z,100446.56
2023-11-18T00:52:09.664Z,100459.50
2023-11-18T00:55:12.465Z,100469.13
2023-11-18T00:58:14.778Z,100446.88
2023-11-18T01:01:19.862Z,100473.06
2023-11-18T01:04:22.109Z,100455.72
2023-11-18T01:07:24.175Z,100454.31
2023-11-18T01:10:26.356Z,100468.25
2023-11-18T01:13:28.633Z,100469.66
2023-11-18T01:16:31.038Z,100467.59
2023-11-18T01:19:34.911Z,100479.34
2023-11-18T01:22:37.174Z,100460.56
2023-11-18T01:25:39.353Z,100479.63
2023-11-18T01:28:44.551Z,100481.63
2023-11-18T01:31:52.204Z,100485.03
2023-11-18T01:34:54.936Z,100478.53
2023-11-18T01:37:57.064Z,100455.69
2023-11-18T01:40:59.247Z,100476.53
2023-11-18T01:44:01.294Z,100473.38
2023-11-18T01:47:07.227Z,100464.25
2023-11-18T01:50:12.704Z,100461.09
2023-11-18T01:53:18.416Z,100477.78
2023-11-18T01:56:22.421Z,100470.81
2023-11-18T01:59:27.135Z,100468.34
2023-11-18T02:02:29.422Z,100470.00
2023-11-18T02:05:31.707Z,100461.03
2023-11-18T02:08:36.519Z,100458.34
2023-11-18T02:11:49.122Z,100464.72
2023-11-18T02:14:52.411Z,100482.31
2023-11-18T02:17:55.243Z,100476.00
2023-11-18T02:21:00.797Z,100480.16
2023-11-18T02:24:02.987Z,100481.59
2023-11-18T02:27:12.991Z,100480.59
2023-11-18T02:30:18.871Z,100491.25
2023-11-18T02:33:31.985Z,100494.66
2023-11-18T02:36:40.687Z,100503.69
2023-11-18T02:39:46.607Z,100514.84
2023-11-18T02:42:51.571Z,100519.81
2023-11-18T02:45:56.078Z,100527.94
2023-11-18T02:48:58.325Z,100524.72
2023-11-18T02:52:00.434Z,100528.38
2023-11-18T02:55:02.373Z,100529.16
2023-11-18T02:58:06.932Z,100520.13
2023-11-18T03:01:09.701Z,100522.19
2023-11-18T03:04:15.274Z,100537.91
2023-11-18T03:07:17.679Z,100519.53
2023-11-18T03:10:23.683Z,100527.13
2023-11-18T03:13:25.803Z,100537.19
2023-11-18T03:16:28.583Z,100549.06
2023-11-18T03:19:30.779Z,100547.75
2023-11-18T03:22:32.960Z,100555.09
2023-11-18T03:25:35.199Z,100551.84
2023-11-18T03:28:41.467Z,100520.63
2023-11-18T03:31:46.052Z,100540.56
2023-11-18T03:34:48.406Z,100546.66
2023-11-18T03:37:50.735Z,100548.25
2023-11-18T03:40:53.575Z,100548.91
2023-11-18T03:43:55.687Z,100545.66
2023-11-18T03:46:57.886Z,100519.47
2023-11-18T03:50:00.137Z,100536.50
2023-11-18T03:53:05.360Z,100558.75
2023-11-18T03:56:07.910Z,100550.03
2023-11-18T03:59:10.716Z,100561.66
2023-11-18T04:02:12.950Z,100551.69
2023-11-18T04:05:16.414Z,100551.81
2023-11-18T04:08:18.706Z,100549.06
2023-11-18T04:11:21.034Z,100577.34
2023-11-18T04:14:23.663Z,100571.88
2023-11-18T04:17:29.363Z,100584.25
2023-11-18T04:20:31.620Z,100568.94
2023-11-18T04:23:34.854Z,100584.22
2023-11-18T04:26:37.014Z,100583.09
2023-11-18T04:29:39.519Z,100574.22
2023-11-18T04:32:44.444Z,100590.38
2023-11-18T04:35:49.702Z,100587.72
2023-11-18T04:38:51.702Z,100581.25
2023-11-18T04:41:53.800Z,100575.28
2023-11-18T04:44:56.042Z,100592.34
2023-11-18T04:47:58.277Z,100583.50
2023-11-18T04:51:00.984Z,100605.22
2023-11-18T04:54:04.623Z,100603.63
2023-11-18T04:57:10.158Z,100615.13
2023-11-18T05:00:13.041Z,100612.09
2023-11-18T05:03:15.198Z,100613.09
2023-11-18T05:06:17.431Z,100610.91
2023-11-18T05:09:19.852Z,100606.44
2023-11-18T05:12:22.057Z,100614.75
2023-11-18T05:15:27.247Z,100640.50
2023-11-18T05:18:34.825Z,100634.69
2023-11-18T05:21:37.378Z,100645.84
2023-11-18T05:24:41.162Z,100629.09
2023-11-18T05:27:45.274Z,100640.91
2023-11-18T05:30:47.954Z,100640.09
2023-11-18T05:33:53.294Z,100637.84
2023-11-18T05:36:55.873Z,100630.88
2023-11-18T05:40:07.047Z,100640.91
2023-11-18T05:43:17.363Z,100612.13
2023-11-18T05:46:24.159Z,100645.22
2023-11-18T05:49:26.782Z,100659.00
2023-11-18T05:52:28.720Z,100650.16
2023-11-18T05:55:30.693Z,100626.78
2023-11-18T05:58:34.050Z,100641.22
2023-11-18T06:01:36.423Z,100656.78
2023-11-18T06:04:38.517Z,100666.31
2023-11-18T06:07:44.688Z,100655.09
2023-11-18T06:10:46.834Z,100667.19
2023-11-18T06:13:51.033Z,100681.91
2023-11-18T06:16:53.387Z,100665.84
2023-11-18T06:19:55.537Z,100671.72
2023-11-18T06:22:58.427Z,100664.59
2023-11-18T06:26:01.544Z,100663.03
2023-11-18T06:29:05.415Z,100673.88
2023-11-18T06:32:09.323Z,100678.91
2023-11-18T06:35:14.595Z,100678.69
2023-11-18T06:38:19.999Z,100695.56
2023-11-18T06:41:34.950Z,100697.78
2023-11-18T06:44:37.313Z,100710.03
2023-11-18T06:47:39.785Z,100702.94
2023-11-18T06:50:45.838Z,100698.38
2023-11-18T06:53:48.276Z,100725.13
2023-11-18T06:56:52.808Z,100724.59
2023-11-18T06:59:54.975Z,100729.72
2023-11-18T07:02:57.391Z,100733.38
2023-11-18T07:05:59.561Z,100742.03
2023-11-18T07:09:02.061Z,100755.47
2023-11-18T07:12:08.627Z,100744.09
2023-11-18T07:15:12.013Z,100745.56
2023-11-18T07:18:14.109Z,100755.75
2023-11-18T07:21:16.249Z,100766.28
2023-11-18T07:24:18.624Z,100759.56
2023-11-18T07:27:21.471Z,100753.50
2023-11-18T07:30:26.636Z,100764.47
2023-11-18T07:33:28.737Z,100760.63
2023-11-18T07:36:30.818Z,100770.78
2023-11-18T07:39:45.125Z,100766.69
2023-11-18T07:42:47.501Z,100772.44
2023-11-18T07:45:54.709Z,100800.84
2023-11-18T07:48:58.081Z,100800.44
2023-11-18T07:52:00.342Z,100801.84
2023-11-18T07:55:02.489Z,100794.16
2023-11-18T07:58:24.661Z,100791.03
2023-11-18T08:01:28.561Z,100808.94
2023-11-18T08:04:31.080Z,100808.06
2023-11-18T08:07:33.531Z,100806.78
2023-11-18T08:10:39.156Z,100797.94
2023-11-18T08:13:41.767Z,100780.47
2023-11-18T08:16:44.336Z,100804.00
2023-11-18T08:19:47.837Z,100804.19
2023-11-18T08:22:50.114Z,100800.06
2023-11-18T08:25:52.154Z,100802.69
2023-11-18T08:28:54.740Z,100811.28
2023-11-18T08:31:57.405Z,100781.78
2023-11-18T08:34:59.587Z,100811.03
2023-11-18T08:38:03.059Z,100828.06
2023-11-18T08:41:06.970Z,100820.09
2023-11-18T08:44:18.518Z,100826.78
2023-11-18T08:47:26.844Z,100830.03
2023-11-18T08:50:30.125Z,100833.25
2023-11-18T08:53:37.312Z,100834.59
2023-11-18T08:56:43.252Z,100820.88
2023-11-18T08:59:45.859Z,100828.09
2023-11-18T09:02:54.054Z,100833.97
2023-11-18T09:05:58.957Z,100845.13
2023-11-18T09:09:07.302Z,100825.91
2023-11-18T09:12:09.814Z,100831.84
2023-11-18T09:15:19.218Z,100829.78
2023-11-18T09:18:23.340Z,100834.94
2023-11-18T09:21:31.209Z,100832.03
2023-11-18T09:24:35.562Z,100826.78
2023-11-18T09:27:39.646Z,100820.03
2023-11-18T09:30:50.960Z,100772.88
2023-11-18T09:33:59.062Z,100797.72
2023-11-18T09:37:01.400Z,100809.69
2023-11-18T09:40:12.759Z,100817.75
2023-11-18T09:43:17.120Z,100820.97
2023-11-18T09:46:25.881Z,100826.44
2023-11-18T09:49:35.243Z,100825.69
2023-11-18T09:52:53.360Z,100823.06
2023-11-18T09:56:04.950Z,100821.38
2023-11-18T09:59:17.204Z,100827.22
2023-11-18T10:02:20.447Z,100821.88
2023-11-18T10:05:24.382Z,100829.91
2023-11-18T10:08:27.564Z,100832.34
2023-11-18T10:11:30.642Z,100807.34
2023-11-18T10:14:36.777Z,100827.03
2023-11-18T10:17:56.432Z,100826.59
2023-11-18T10:21:00.963Z,100830.28
2023-11-18T10:24:03.354Z,100837.69
2023-11-18T10:27:10.022Z,100840.41
2023-11-18T10:30:20.663Z,100845.25
2023-11-18T10:33:23.213Z,100835.06
2023-11-18T10:36:25.714Z,100841.50
2023-11-18T10:39:32.422Z,100839.53
2023-11-18T10:42:35.019Z,100843.81
2023-11-18T10:45:42.311Z,100853.25
2023-11-18T10:48:49.127Z,100845.50
2023-11-18T10:51:54.410Z,100859.69
2023-11-18T10:54:57.311Z,100864.34
2023-11-18T10:58:02.026Z,100860.69
2023-11-18T11:01:06.655Z,100864.06
2023-11-18T11:04:11.387Z,100864.25
2023-11-18T11:07:15.607Z,100872.06
2023-11-18T11:10:18.384Z,100879.06
2023-11-18T11:13:20.967Z,100874.38
2023-11-18T11:16:28.939Z,100878.88
2023-11-18T11:19:46.142Z,100867.50
2023-11-18T11:23:11.654Z,100873.91
2023-11-18T11:26:29.761Z,100886.72
2023-11-18T11:29:58.525Z,100869.50
2023-11-18T11:33:29.033Z,100884.81
2023-11-18T11:36:39.594Z,100888.34
2023-11-18T11:39:47.929Z,100887.03
2023-11-18T11:42:58.247Z,100905.84
2023-11-18T11:46:00.547Z,100905.88
2023-11-18T11:49:12.818Z,100894.13
2023-11-18T11:52:29.268Z,100899.34
2023-11-18T11:55:39.923Z,100898.94
2023-11-18T11:58:46.204Z,100911.50
2023-11-18T12:01:53.938Z,100917.97
2023-11-18T12:05:00.189Z,100867.63
2023-11-18T12:08:02.674Z,100919.19
2023-11-18T12:11:10.938Z,100922.66
2023-11-18T12:14:25.259Z,100913.47
2023-11-18T12:17:30.206Z,100915.31
2023-11-18T12:20:43.880Z,100918.72
2023-11-18T12:24:20.062Z,100909.75
2023-11-18T12:27:44.708Z,100926.41
2023-11-18T12:30:53.463Z,100921.88
2023-11-18T12:33:55.573Z,100937.56
2023-11-18T12:37:13.801Z,100936.19
2023-11-18T12:40:25.767Z,100944.00
2023-11-18T12:44:20.196Z,100939.44
2023-11-18T12:47:29.901Z,100945.19
2023-11-18T12:50:36.030Z,100947.69
2023-11-18T12:53:38.410Z,100930.56
2023-11-18T12:56:40.737Z,100964.41
2023-11-18T12:59:43.768Z,100955.81
2023-11-18T13:02:46.452Z,100943.19
2023-11-18T13:05:49.904Z,100947.94
2023-11-18T13:08:52.190Z,100951.78
2023-11-18T13:12:02.222Z,100954.34
2023-11-18T13:15:09.810Z,100955.72
2023-11-18T13:18:13.590Z,100953.16
2023-11-18T13:21:17.781Z,100960.88
2023-11-18T13:24:20.490Z,100927.03
2023-11-18T13:27:24.325Z,100957.53
2023-11-18T13:30:26.494Z,100971.19
2023-11-18T13:33:29.157Z,100950.31
2023-11-18T13:36:33.109Z,100960.09
2023-11-18T13:39:36.621Z,100953.09
2023-11-18T13:42:40.418Z,100972.84
2023-11-18T13:45:44.195Z,100972.28
2023-11-18T13:48:53.006Z,100968.63
2023-11-18T13:51:57.088Z,100963.91
2023-11-18T13:55:00.990Z,100974.88
2023-11-18T13:58:06.342Z,100967.44
2023-11-18T14:01:09.676Z,100969.53
2023-11-18T14:04:11.958Z,100966.28
2023-11-18T14:07:18.471Z,100988.66
2023-11-18T14:10:20.728Z,100956.78
2023-11-18T14:13:23.504Z,100978.19
2023-11-18T14:16:27.545Z,100980.34
2023-11-18T14:19:32.790Z,100987.06
2023-11-18T14:22:34.844Z,100994.38
2023-11-18T14:25:37.868Z,100991.91
2023-11-18T14:28:40.195Z,100984.91
2023-11-18T14:31:42.278Z,100954.38
2023-11-18T14:34:44.571Z,100997.75
2023-11-18T14:37:46.765Z,100981.88
2023-11-18T14:40:49.617Z,100992.72
2023-11-18T14:43:53.186Z,100992.97
2023-11-18T14:46:56.362Z,100968.69
2023-11-18T14:49:58.556Z,100995.41
2023-11-18T14:53:01.326Z,100988.34
2023-11-18T14:56:06.710Z,101009.75
2023-11-18T14:59:09.365Z,100987.69
2023-11-18T15:02:12.196Z,101002.72
2023-11-18T15:05:19.459Z,101014.09
2023-11-18T15:08:21.789Z,101019.69
2023-11-18T15:11:24.895Z,101002.34
2023-11-18T15:14:27.041Z,101029.47
2023-11-18T15:17:41.282Z,101021.94
2023-11-18T15:20:48.944Z,101052.09
2023-11-18T15:23:51.534Z,101053.34
2023-11-18T15:26:53.656Z,101057.88
2023-11-18T15:29:55.686Z,101058.66
2023-11-18T15:32:57.865Z,101062.44
2023-11-18T15:36:02.438Z,101071.59
2023-11-18T15:39:06.062Z,101054.47
2023-11-18T15:42:08.178Z,101073.72
2023-11-18T15:45:15.477Z,101084.00
2023-11-18T15:48:18.134Z,101075.09
2023-11-18T15:51:22.551Z,101091.00
2023-11-18T15:54:24.713Z,101095.19
2023-11-18T15:57:26.809Z,101091.47
2023-11-18T16:00:29.721Z,101081.56
2023-11-18T16:03:31.969Z,101091.59
2023-11-18T16:06:34.323Z,101101.88
2023-11-18T16:09:37.111Z,101101.94
2023-11-18T16:12:39.322Z,101094.31
2023-11-18T16:15:42.566Z,101092.16
2023-11-18T16:18:44.635Z,101098.66
2023-11-18T16:21:48.111Z,101103.75
2023-11-18T16:24:50.172Z,101102.50
2023-11-18T16:27:53.588Z,101116.50
2023-11-18T16:30:57.770Z,101114.47
2023-11-18T16:33:59.980Z,101119.84
2023-11-18T16:37:03.193Z,101109.78
2023-11-18T16:40:06.058Z,101106.59
2023-11-18T16:43:08.265Z,101114.78
2023-11-18T16:46:10.425Z,101125.19
2023-11-18T16:49:17.465Z,101120.13
2023-11-18T16:52:19.502Z,101112.91
2023-11-18T16:55:25.123Z,101119.50
2023-11-18T16:58:28.656Z,101126.84
2023-11-18T17:01:30.672Z,101126.91
2023-11-18T17:04:34.813Z,101123.50
2023-11-18T17:07:37.110Z,101112.28
2023-11-18T17:10:39.225Z,101131.16
2023-11-18T17:13:42.223Z,101122.13
2023-11-18T17:16:44.378Z,101134.41
2023-11-18T17:19:46.527Z,101134.91
2023-11-18T17:22:48.560Z,101137.19
2023-11-18T17:25:51.193Z,101142.44
2023-11-18T17:28:53.568Z,101147.47
2023-11-18T17:31:57.643Z,101137.66
2023-11-18T17:35:00.757Z,101156.13
2023-11-18T17:38:03.084Z,101144.59
2023-11-18T17:41:05.519Z,101138.38
2023-11-18T17:44:07.601Z,101163.03
2023-11-18T17:47:10.997Z,101165.91
2023-11-18T17:50:18.734Z,101175.06
2023-11-18T17:53:20.905Z,101154.59
2023-11-18T17:56:23.111Z,101178.94
2023-11-18T17:59:25.453Z,101190.59
2023-11-18T18:02:28.044Z,101193.66
2023-11-18T18:05:30.291Z,101177.13
2023-11-18T18:08:35.597Z,101198.25
2023-11-18T18:11:37.695Z,101193.19
2023-11-18T18:14:39.954Z,101215.81
2023-11-18T18:17:42.147Z,101208.59
2023-11-18T18:20:49.361Z,101207.56
2023-11-18T18:23:51.661Z,101204.84
2023-11-18T18:26:54.364Z,101223.44
2023-11-18T18:29:56.874Z,101234.56
2023-11-18T18:32:59.044Z,101219.41
2023-11-18T18:36:01.162Z,101237.28
2023-11-18T18:39:03.285Z,101232.06
2023-11-18T18:42:06.490Z,101238.94
2023-11-18T18:45:09.416Z,101244.84
2023-11-18T18:48:11.706Z,101246.91
2023-11-18T18:51:15.805Z,101252.16
2023-11-18T18:54:18.514Z,101248.44
2023-11-18T18:57:20.679Z,101245.75
2023-11-18T19:00:22.889Z,101245.91
2023-11-18T19:03:25.012Z,101234.94
2023-11-18T19:06:27.222Z,101237.31
2023-11-18T19:09:29.669Z,101224.97
2023-11-18T19:12:31.757Z,101242.19
2023-11-18T19:15:34.102Z,101237.81
2023-11-18T19:18:36.316Z,101245.56
2023-11-18T19:21:38.439Z,101228.16
2023-11-18T19:24:40.623Z,101249.00
2023-11-18T19:27:44.522Z,101241.03
2023-11-18T19:30:47.821Z,101240.84
2023-11-18T19:33:50.095Z,101248.28
2023-11-18T19:36:52.906Z,101269.44
2023-11-18T19:39:54.981Z,101263.00
2023-11-18T19:42:57.437Z,101267.41
2023-11-18T19:45:59.617Z,101279.91
2023-11-18T19:49:02.011Z,101270.25
2023-11-18T19:52:05.480Z,101289.22
2023-11-18T19:55:08.086Z,101272.31
2023-11-18T19:58:10.212Z,101271.59
2023-11-18T20:01:19.565Z,101276.84
2023-11-18T20:04:23.395Z,101282.25
2023-11-18T20:07:25.986Z,101291.75
2023-11-18T20:10:29.729Z,101286.53
2023-11-18T20:13:32.114Z,101275.50
2023-11-18T20:16:34.649Z,101281.13
2023-11-18T20:19:39.988Z,101285.47
2023-11-18T20:22:42.105Z,101283.63
2023-11-18T20:25:45.200Z,101290.56
2023-11-18T20:28:47.285Z,101264.88
2023-11-18T20:31:49.751Z,101254.22
2023-11-18T20:34:54.893Z,101275.50
2023-11-18T20:37:57.257Z,101290.03
2023-11-18T20:40:59.429Z,101286.84
2023-11-18T20:44:02.796Z,101286.34
2023-11-18T20:47:04.935Z,101289.22
2023-11-18T20:50:07.841Z,101289.22
2023-11-18T20:53:10.648Z,101277.03
2023-11-18T20:56:13.598Z,101274.34
2023-11-18T20:59:19.466Z,101271.78
2023-11-18T21:02:23.494Z,101283.09
2023-11-18T21:05:25.735Z,101290.91
2023-11-18T21:08:28.035Z,101275.84
2023-11-18T21:11:30.362Z,101293.63
2023-11-18T21:14:32.579Z,101304.59
2023-11-18T21:17:35.671Z,101301.53
2023-11-18T21:20:37.860Z,101302.88
2023-11-18T21:23:40.637Z,101302.22
2023-11-18T21:26:42.693Z,101289.88
2023-11-18T21:29:44.879Z,101304.91
2023-11-18T21:32:47.439Z,101311.84
2023-11-18T21:35:49.776Z,101287.34
2023-11-18T21:38:54.165Z,101316.28
2023-11-18T21:41:57.483Z,101322.03
2023-11-18T21:44:59.696Z,101314.41
2023-11-18T21:48:03.182Z,101283.44
2023-11-18T21:51:06.087Z,101302.91
2023-11-18T21:54:09.219Z,101303.88
2023-11-18T21:57:12.024Z,101303.56
2023-11-18T22:00:17.987Z,101285.81
2023-11-18T22:03:21.405Z,101277.88
2023-11-18T22:06:23.823Z,101309.00
2023-11-18T22:09:25.848Z,101311.22
2023-11-18T22:12:27.969Z,101314.72
2023-11-18T22:15:30.132Z,101318.28
2023-11-18T22:18:32.348Z,101315.25
2023-11-18T22:21:34.491Z,101306.63
2023-11-18T22:24:36.917Z,101323.16
2023-11-18T22:27:41.681Z,101328.28
2023-11-18T22:30:43.938Z,101315.56
2023-11-18T22:33:46.056Z,101290.22
2023-11-18T22:36:48.245Z,101318.44
2023-11-18T22:39:50.428Z,101313.91
2023-11-18T22:42:53.218Z,101314.22
2023-11-18T22:45:55.449Z,101317.97
2023-11-18T22:48:57.458Z,101314.91
2023-11-18T22:51:59.953Z,101315.91
2023-11-18T22:55:14.840Z,101298.16
2023-11-18T22:58:18.234Z,101317.63
2023-11-18T23:01:24.306Z,101322.53
2023-11-18T23:04:28.384Z,101332.31
2023-11-18T23:07:30.517Z,101250.72
2023-11-18T23:10:33.200Z,101326.72
2023-11-18T23:13:36.907Z,101338.72
2023-11-18T23:16:39.066Z,101331.63
2023-11-18T23:19:47.843Z,101332.97
2023-11-18T23:22:52.563Z,101339.22
2023-11-18T23:25:57.379Z,101329.41
2023-11-18T23:28:59.724Z,101340.56
2023-11-18T23:32:01.906Z,101340.25
2023-11-18T23:35:07.177Z,101338.06
2023-11-18T23:38:09.330Z,101341.41
2023-11-18T23:41:11.376Z,101325.38
2023-11-18T23:44:15.047Z,101333.13
2023-11-18T23:47:17.143Z,101328.09
2023-11-18T23:50:20.152Z,101335.50
2023-11-18T23:53:22.283Z,101336.69
2023-11-18T23:56:24.422Z,101349.53
2023-11-18T23:59:27.275Z,101350.56
